Time;durP1;ratioP1;P1;durP2;ratioP2;P2;SDS_P1;SDS_P2;PMS_P1;PMS_P2;Temp;Humidity;BMP_temperature;BMP_pressure;BME280_temperature;BME280_humidity;BME280_pressure;Samples;Min_cycle;Max_cycle;Signal;HPM_P1;HPM_P2
2022/12/20 00:00:41;;;;;;;1.00;0.80;;;;;;;;;;4555576;28;20068;-58
2022/12/20 00:02:52;;;;;;;0.85;0.80;;;;;;;;;;4581685;22;20625;-58
2022/12/20 00:05:02;;;;;;;1.05;0.90;;;;;;;;;;4582016;27;20187;-58
2022/12/20 00:07:12;;;;;;;0.70;0.70;;;;;;;;;;4581088;27;20038;-58
2022/12/20 00:09:24;;;;;;;1.27;0.90;;;;;;;;;;4580518;27;20032;-58
2022/12/20 00:11:37;;;;;;;1.00;0.90;;;;;;;;;;4581360;27;20622;-58
2022/12/20 00:13:47;;;;;;;1.40;0.98;;;;;;;;;;4581089;27;20579;-58
2022/12/20 00:16:08;;;;;;;0.95;0.80;;;;;;;;;;4563494;27;20049;-58
2022/12/20 00:18:18;;;;;;;1.15;0.88;;;;;;;;;;4581580;27;20071;-58
2022/12/20 00:20:29;;;;;;;0.93;0.75;;;;;;;;;;4580117;27;20131;-58
2022/12/20 00:22:39;;;;;;;0.70;0.70;;;;;;;;;;4579801;27;20575;-58
2022/12/20 00:24:50;;;;;;;1.10;0.90;;;;;;;;;;4565491;27;20035;-58
2022/12/20 00:27:00;;;;;;;0.85;0.70;;;;;;;;;;4581613;27;20028;-59
2022/12/20 00:29:10;;;;;;;1.13;1.00;;;;;;;;;;4565155;27;20036;-56
2022/12/20 00:31:21;;;;;;;1.05;0.90;;;;;;;;;;4561938;27;20032;-58
2022/12/20 00:33:32;;;;;;;1.75;0.90;;;;;;;;;;4580465;27;20036;-58
2022/12/20 00:35:43;;;;;;;1.00;0.80;;;;;;;;;;4561714;27;20040;-58
2022/12/20 00:37:53;;;;;;;0.70;0.70;;;;;;;;;;4582840;27;20483;-58
2022/12/20 00:40:04;;;;;;;0.73;0.73;;;;;;;;;;4564523;27;20150;-58
2022/12/20 00:42:15;;;;;;;0.80;0.80;;;;;;;;;;4578942;27;20127;-58
2022/12/20 00:44:27;;;;;;;0.88;0.80;;;;;;;;;;4580684;27;20036;-58
2022/12/20 00:46:37;;;;;;;0.77;0.70;;;;;;;;;;4581101;27;20035;-58
2022/12/20 00:48:48;;;;;;;0.75;0.68;;;;;;;;;;4581269;27;20036;-58
2022/12/20 00:50:59;;;;;;;0.80;0.75;;;;;;;;;;4578197;27;20775;-58
2022/12/20 00:53:09;;;;;;;0.52;0.52;;;;;;;;;;4581060;27;20035;-60
2022/12/20 00:55:20;;;;;;;0.70;0.70;;;;;;;;;;4581541;27;20044;-58
2022/12/20 00:57:30;;;;;;;0.80;0.70;;;;;;;;;;4583771;27;20030;-58
2022/12/20 00:59:40;;;;;;;0.93;0.70;;;;;;;;;;4564840;27;20504;-58
2022/12/20 01:01:51;;;;;;;0.98;0.85;;;;;;;;;;4580922;27;20071;-59
2022/12/20 01:04:03;;;;;;;0.70;0.60;;;;;;;;;;4581518;27;20507;-59
2022/12/20 01:06:14;;;;;;;0.52;0.52;;;;;;;;;;4582245;27;20024;-58
2022/12/20 01:08:25;;;;;;;1.05;0.80;;;;;;;;;;4583357;27;20028;-58
2022/12/20 01:10:36;;;;;;;0.70;0.70;;;;;;;;;;4581732;27;20801;-58
2022/12/20 01:12:46;;;;;;;0.80;0.80;;;;;;;;;;4580700;27;20031;-58
2022/12/20 01:14:56;;;;;;;0.85;0.80;;;;;;;;;;4565261;27;20032;-58
2022/12/20 01:17:07;;;;;;;0.82;0.70;;;;;;;;;;4580974;27;20071;-58
2022/12/20 01:19:18;;;;;;;0.75;0.68;;;;;;;;;;4566741;27;20055;-58
2022/12/20 01:21:28;;;;;;;0.70;0.70;;;;;;;;;;4562517;27;20039;-58
2022/12/20 01:23:39;;;;;;;0.80;0.80;;;;;;;;;;4562240;27;20041;-58
2022/12/20 01:25:50;;;;;;;0.77;0.77;;;;;;;;;;4580269;27;20169;-58
2022/12/20 01:28:00;;;;;;;0.70;0.70;;;;;;;;;;4563122;27;20041;-58
2022/12/20 01:30:11;;;;;;;0.63;0.63;;;;;;;;;;4561269;27;20397;-58
2022/12/20 01:32:21;;;;;;;0.77;0.77;;;;;;;;;;4571362;27;20618;-58
2022/12/20 01:34:31;;;;;;;1.02;0.80;;;;;;;;;;4580185;27;20044;-58
2022/12/20 01:36:42;;;;;;;1.00;0.70;;;;;;;;;;4579487;27;20020;-58
2022/12/20 01:38:59;;;;;;;1.00;0.80;;;;;;;;;;4580673;27;20040;-58
2022/12/20 01:41:17;;;;;;;0.85;0.85;;;;;;;;;;4562838;27;20066;-58
2022/12/20 01:43:46;;;;;;;0.70;0.70;;;;;;;;;;4563325;27;20131;-58
2022/12/20 01:45:56;;;;;;;0.82;0.82;;;;;;;;;;4580446;27;20183;-58
2022/12/20 01:48:07;;;;;;;0.77;0.77;;;;;;;;;;4562194;27;20624;-58
2022/12/20 01:50:17;;;;;;;0.80;0.80;;;;;;;;;;4579405;27;20089;-58
2022/12/20 01:52:31;;;;;;;0.82;0.70;;;;;;;;;;4561565;27;20090;-59
2022/12/20 01:54:52;;;;;;;0.73;0.63;;;;;;;;;;4580258;27;20716;-58
2022/12/20 01:57:05;;;;;;;0.77;0.77;;;;;;;;;;4579367;27;20020;-58
2022/12/20 01:59:16;;;;;;;0.80;0.70;;;;;;;;;;4577980;27;20686;-59
2022/12/20 02:01:26;;;;;;;0.82;0.80;;;;;;;;;;4562058;27;20066;-59
2022/12/20 02:03:38;;;;;;;0.80;0.70;;;;;;;;;;4579382;27;20127;-58
2022/12/20 02:05:49;;;;;;;0.70;0.70;;;;;;;;;;4580690;27;20106;-58
2022/12/20 02:07:59;;;;;;;0.70;0.63;;;;;;;;;;4579824;27;20036;-58
2022/12/20 02:10:10;;;;;;;0.73;0.70;;;;;;;;;;4579416;27;20047;-58
2022/12/20 02:12:22;;;;;;;0.70;0.70;;;;;;;;;;4554300;27;20110;-58
2022/12/20 02:14:41;;;;;;;0.70;0.70;;;;;;;;;;4581942;27;20169;-58
2022/12/20 02:16:56;;;;;;;0.60;0.60;;;;;;;;;;4554271;27;20083;-57
2022/12/20 02:19:25;;;;;;;0.80;0.80;;;;;;;;;;4578755;27;20028;-58
2022/12/20 02:21:38;;;;;;;0.70;0.60;;;;;;;;;;4564792;27;20042;-58
2022/12/20 02:23:51;;;;;;;0.68;0.68;;;;;;;;;;4564722;27;20602;-58
2022/12/20 02:26:12;;;;;;;0.63;0.60;;;;;;;;;;4560248;27;20172;-58
2022/12/20 02:28:29;;;;;;;0.80;0.80;;;;;;;;;;4570132;27;20167;-58
2022/12/20 02:30:42;;;;;;;0.93;0.80;;;;;;;;;;4546515;27;20138;-58
2022/12/20 02:32:58;;;;;;;1.17;0.80;;;;;;;;;;4563637;27;20088;-58
2022/12/20 02:35:11;;;;;;;0.52;0.52;;;;;;;;;;4561130;27;20139;-58
2022/12/20 02:37:21;;;;;;;0.75;0.70;;;;;;;;;;4579408;27;20028;-58
2022/12/20 02:39:33;;;;;;;0.88;0.68;;;;;;;;;;4561741;27;20040;-58
2022/12/20 02:41:49;;;;;;;0.70;0.60;;;;;;;;;;4564143;27;20039;-57
2022/12/20 02:46:31;;;;;;;0.60;0.60;;;;;;;;;;4585272;27;20062;-58
2022/12/20 02:48:41;;;;;;;0.70;0.70;;;;;;;;;;4583567;27;20150;-58
2022/12/20 02:50:52;;;;;;;1.05;0.60;;;;;;;;;;4567119;27;21011;-58
2022/12/20 02:53:04;;;;;;;0.70;0.70;;;;;;;;;;4582545;27;20132;-58
2022/12/20 02:55:14;;;;;;;0.75;0.65;;;;;;;;;;4584688;27;20036;-58
2022/12/20 02:57:33;;;;;;;0.82;0.60;;;;;;;;;;4582970;27;20028;-59
2022/12/20 02:59:47;;;;;;;0.65;0.65;;;;;;;;;;4564755;27;20591;-58
2022/12/20 03:01:58;;;;;;;0.60;0.60;;;;;;;;;;4582122;27;20057;-58
2022/12/20 03:04:10;;;;;;;0.88;0.70;;;;;;;;;;4563142;27;20032;-58
2022/12/20 03:06:22;;;;;;;0.80;0.63;;;;;;;;;;4565485;27;20033;-58
2022/12/20 03:08:32;;;;;;;0.80;0.70;;;;;;;;;;4566343;27;20036;-58
2022/12/20 03:10:43;;;;;;;0.80;0.60;;;;;;;;;;4564934;27;20040;-59
2022/12/20 03:12:54;;;;;;;0.75;0.70;;;;;;;;;;4567330;27;20492;-58
2022/12/20 03:15:05;;;;;;;0.60;0.60;;;;;;;;;;4563916;28;20036;-58
2022/12/20 03:17:15;;;;;;;0.90;0.77;;;;;;;;;;4565238;27;20508;-58
2022/12/20 03:19:26;;;;;;;0.60;0.60;;;;;;;;;;4563467;27;20040;-58
2022/12/20 03:21:36;;;;;;;0.68;0.60;;;;;;;;;;4562655;27;20037;-58
2022/12/20 03:23:47;;;;;;;0.63;0.60;;;;;;;;;;4582393;27;20495;-58
2022/12/20 03:25:57;;;;;;;0.68;0.60;;;;;;;;;;4563079;27;20144;-58
2022/12/20 03:28:15;;;;;;;0.60;0.60;;;;;;;;;;4550834;27;20044;-58
2022/12/20 03:30:26;;;;;;;0.70;0.70;;;;;;;;;;4564217;27;20039;-58
2022/12/20 03:32:36;;;;;;;0.70;0.70;;;;;;;;;;4583556;27;20040;-59
2022/12/20 03:34:46;;;;;;;0.85;0.73;;;;;;;;;;4582738;27;20032;-58
2022/12/20 03:36:59;;;;;;;0.70;0.70;;;;;;;;;;4566100;27;20655;-58
2022/12/20 03:39:09;;;;;;;1.00;0.75;;;;;;;;;;4581232;27;20035;-58
2022/12/20 03:41:22;;;;;;;0.65;0.65;;;;;;;;;;4582794;27;20511;-58
2022/12/20 03:43:32;;;;;;;0.73;0.70;;;;;;;;;;4564588;27;20070;-58
2022/12/20 03:45:43;;;;;;;1.02;0.70;;;;;;;;;;4562692;27;20100;-58
2022/12/20 03:47:53;;;;;;;0.80;0.80;;;;;;;;;;4565641;27;20040;-58
2022/12/20 03:50:07;;;;;;;0.70;0.70;;;;;;;;;;4564570;27;20029;-58
2022/12/20 03:52:19;;;;;;;0.60;0.60;;;;;;;;;;4565862;27;20044;-58
2022/12/20 03:54:30;;;;;;;0.80;0.70;;;;;;;;;;4564131;27;20112;-58
2022/12/20 03:56:52;;;;;;;1.25;0.80;;;;;;;;;;4564973;27;20282;-58
2022/12/20 03:59:03;;;;;;;0.70;0.70;;;;;;;;;;4581410;27;20081;-58
2022/12/20 04:01:15;;;;;;;0.90;0.75;;;;;;;;;;4565785;27;20037;-58
2022/12/20 04:03:27;;;;;;;1.00;0.90;;;;;;;;;;4565874;27;20041;-58
2022/12/20 04:05:38;;;;;;;0.90;0.85;;;;;;;;;;4573810;27;20028;-58
2022/12/20 04:07:49;;;;;;;1.00;0.90;;;;;;;;;;4582463;27;20119;-58
2022/12/20 04:09:59;;;;;;;1.13;0.90;;;;;;;;;;4565095;27;20043;-58
2022/12/20 04:12:10;;;;;;;0.80;0.80;;;;;;;;;;4563934;27;20561;-59
2022/12/20 04:14:22;;;;;;;1.20;0.90;;;;;;;;;;4562236;27;20834;-58
2022/12/20 04:16:33;;;;;;;0.90;0.90;;;;;;;;;;4564809;27;20101;-58
2022/12/20 04:18:44;;;;;;;1.38;0.80;;;;;;;;;;4561117;27;20028;-58
2022/12/20 04:20:54;;;;;;;1.08;0.90;;;;;;;;;;4564244;27;20037;-58
2022/12/20 04:23:09;;;;;;;1.00;0.88;;;;;;;;;;4562491;27;20040;-58
2022/12/20 04:25:20;;;;;;;0.80;0.80;;;;;;;;;;4563213;27;20475;-58
2022/12/20 04:27:30;;;;;;;0.80;0.80;;;;;;;;;;4564750;27;20037;-58
2022/12/20 04:29:41;;;;;;;1.33;0.98;;;;;;;;;;4573095;27;20043;-58
2022/12/20 04:31:55;;;;;;;0.93;0.80;;;;;;;;;;4566156;27;20031;-59
2022/12/20 04:34:06;;;;;;;0.77;0.77;;;;;;;;;;4579848;27;20047;-59
2022/12/20 04:36:17;;;;;;;1.00;0.90;;;;;;;;;;4580873;27;20040;-59
2022/12/20 04:38:28;;;;;;;0.80;0.80;;;;;;;;;;4563235;27;20840;-58
2022/12/20 04:40:38;;;;;;;1.02;0.93;;;;;;;;;;4565594;27;20040;-58
2022/12/20 04:42:51;;;;;;;0.85;0.70;;;;;;;;;;4565206;27;20039;-58
2022/12/20 04:45:03;;;;;;;0.80;0.80;;;;;;;;;;4573514;27;20523;-58
2022/12/20 04:47:14;;;;;;;1.30;0.77;;;;;;;;;;4563759;27;20036;-58
2022/12/20 04:49:24;;;;;;;1.00;0.80;;;;;;;;;;4579953;27;20463;-58
2022/12/20 04:51:34;;;;;;;1.00;0.90;;;;;;;;;;4565980;27;20036;-58
2022/12/20 04:53:48;;;;;;;1.10;1.00;;;;;;;;;;4562792;27;20035;-59
2022/12/20 04:56:27;;;;;;;0.88;0.80;;;;;;;;;;4576229;27;20124;-58
2022/12/20 04:58:39;;;;;;;1.00;0.90;;;;;;;;;;4573144;27;20675;-58
2022/12/20 05:00:52;;;;;;;0.82;0.82;;;;;;;;;;4570079;27;20032;-58
2022/12/20 05:03:09;;;;;;;1.00;0.80;;;;;;;;;;4562670;27;20680;-58
2022/12/20 05:05:19;;;;;;;1.10;1.00;;;;;;;;;;4563646;27;20064;-59
2022/12/20 05:07:34;;;;;;;0.80;0.80;;;;;;;;;;4564455;27;20032;-59
2022/12/20 05:09:44;;;;;;;1.05;0.90;;;;;;;;;;4564875;27;20040;-58
2022/12/20 05:11:55;;;;;;;0.90;0.90;;;;;;;;;;4562330;27;20028;-59
2022/12/20 05:14:05;;;;;;;1.10;1.00;;;;;;;;;;4562656;27;20033;-58
2022/12/20 05:16:15;;;;;;;0.93;0.90;;;;;;;;;;4565698;27;20109;-59
2022/12/20 05:18:26;;;;;;;1.27;0.93;;;;;;;;;;4564040;27;20483;-59
2022/12/20 05:20:44;;;;;;;1.30;0.98;;;;;;;;;;4565073;27;20047;-59
2022/12/20 05:27:57;;;;;;;0.90;0.90;;;;;;;;;;4570121;27;20043;-59
2022/12/20 05:30:10;;;;;;;1.45;0.90;;;;;;;;;;4566047;27;20170;-59
2022/12/20 05:32:21;;;;;;;1.00;0.90;;;;;;;;;;4561236;27;20028;-59
2022/12/20 05:34:31;;;;;;;0.98;0.90;;;;;;;;;;4565873;27;20067;-59
2022/12/20 05:36:41;;;;;;;0.80;0.80;;;;;;;;;;4562104;27;20563;-59
2022/12/20 05:38:52;;;;;;;0.93;0.90;;;;;;;;;;4561889;27;20046;-59
2022/12/20 05:41:04;;;;;;;1.10;0.98;;;;;;;;;;4561996;27;20032;-59
2022/12/20 05:43:17;;;;;;;1.35;1.00;;;;;;;;;;4563435;27;20092;-59
2022/12/20 05:45:29;;;;;;;1.45;1.02;;;;;;;;;;4562023;27;20567;-60
2022/12/20 05:47:45;;;;;;;1.03;0.87;;;;;;;;;;4565511;27;20039;-57
2022/12/20 05:49:56;;;;;;;1.20;0.90;;;;;;;;;;4571235;27;20032;-57
2022/12/20 05:52:07;;;;;;;1.23;0.90;;;;;;;;;;4581128;27;20366;-58
2022/12/20 05:54:20;;;;;;;1.02;0.93;;;;;;;;;;4562887;27;20067;-56
2022/12/20 05:56:37;;;;;;;1.45;1.00;;;;;;;;;;4562328;27;20036;-57
2022/12/20 05:58:47;;;;;;;1.15;0.90;;;;;;;;;;4561745;27;20497;-57
2022/12/20 06:01:02;;;;;;;0.77;0.77;;;;;;;;;;4564735;27;20090;-57
2022/12/20 06:03:16;;;;;;;0.75;0.73;;;;;;;;;;4564824;27;21251;-57
2022/12/20 06:05:26;;;;;;;0.93;0.90;;;;;;;;;;4571361;27;20075;-57
2022/12/20 06:07:38;;;;;;;1.20;0.80;;;;;;;;;;4581712;27;20598;-57
2022/12/20 06:09:48;;;;;;;0.93;0.82;;;;;;;;;;4561931;27;20036;-57
2022/12/20 06:12:01;;;;;;;0.98;0.70;;;;;;;;;;4579924;27;20031;-57
2022/12/20 06:14:13;;;;;;;0.77;0.70;;;;;;;;;;4562395;27;20028;-57
2022/12/20 06:16:28;;;;;;;0.90;0.80;;;;;;;;;;4551208;27;20045;-59
2022/12/20 06:18:40;;;;;;;1.10;1.00;;;;;;;;;;4551863;27;20040;-58
2022/12/20 06:20:51;;;;;;;1.05;0.95;;;;;;;;;;4545700;27;20091;-58
2022/12/20 06:23:06;;;;;;;1.20;1.10;;;;;;;;;;4529963;27;20540;-58
2022/12/20 06:25:24;;;;;;;0.80;0.80;;;;;;;;;;4538209;27;20032;-59
2022/12/20 06:27:36;;;;;;;0.80;0.80;;;;;;;;;;4551919;27;20844;-58
2022/12/20 06:29:53;;;;;;;0.98;0.85;;;;;;;;;;4560292;27;20028;-59
2022/12/20 06:32:06;;;;;;;0.90;0.73;;;;;;;;;;4549934;27;20041;-60
2022/12/20 06:34:17;;;;;;;0.82;0.80;;;;;;;;;;4581657;27;20032;-60
2022/12/20 06:36:27;;;;;;;0.98;0.90;;;;;;;;;;4563388;27;20041;-57
2022/12/20 06:38:39;;;;;;;1.00;0.90;;;;;;;;;;4555552;27;20203;-58
2022/12/20 06:40:49;;;;;;;0.90;0.90;;;;;;;;;;4564685;27;20040;-57
2022/12/20 06:43:00;;;;;;;1.05;0.88;;;;;;;;;;4549468;27;20489;-57
2022/12/20 06:45:10;;;;;;;1.02;0.80;;;;;;;;;;4582514;27;20098;-57
2022/12/20 06:47:21;;;;;;;0.85;0.82;;;;;;;;;;4582359;27;20053;-57
2022/12/20 06:49:31;;;;;;;0.95;0.80;;;;;;;;;;4563252;27;20078;-58
2022/12/20 06:51:42;;;;;;;0.68;0.68;;;;;;;;;;4566529;27;20036;-57
2022/12/20 06:53:53;;;;;;;1.35;0.85;;;;;;;;;;4564134;27;20127;-58
2022/12/20 06:56:05;;;;;;;1.10;0.90;;;;;;;;;;4563653;27;20036;-58
2022/12/20 06:58:19;;;;;;;0.80;0.80;;;;;;;;;;4567285;27;20036;-58
2022/12/20 07:00:31;;;;;;;2.05;0.90;;;;;;;;;;4568550;27;20036;-58
2022/12/20 07:02:41;;;;;;;1.10;0.82;;;;;;;;;;4580793;27;20032;-57
2022/12/20 07:04:52;;;;;;;1.38;0.95;;;;;;;;;;4583025;27;20481;-57
2022/12/20 07:07:02;;;;;;;0.88;0.88;;;;;;;;;;4582187;27;20028;-57
2022/12/20 07:09:13;;;;;;;0.80;0.80;;;;;;;;;;4581544;27;20426;-59
2022/12/20 07:11:23;;;;;;;1.10;1.00;;;;;;;;;;4581644;27;20024;-60
2022/12/20 07:13:34;;;;;;;1.20;0.90;;;;;;;;;;4562222;27;20047;-59
2022/12/20 07:15:44;;;;;;;1.10;0.90;;;;;;;;;;4581676;27;20036;-60
2022/12/20 07:17:55;;;;;;;1.13;0.90;;;;;;;;;;4582344;27;20032;-60
2022/12/20 07:20:06;;;;;;;1.05;0.90;;;;;;;;;;4562631;27;20028;-60
2022/12/20 07:22:16;;;;;;;0.80;0.80;;;;;;;;;;4581582;27;20032;-60
2022/12/20 07:24:27;;;;;;;1.00;0.90;;;;;;;;;;4563131;27;20047;-60
2022/12/20 07:26:37;;;;;;;1.00;0.90;;;;;;;;;;4560720;27;20024;-60
2022/12/20 07:28:47;;;;;;;0.80;0.73;;;;;;;;;;4561569;27;20051;-63
2022/12/20 07:31:01;;;;;;;1.50;0.90;;;;;;;;;;4581791;27;20044;-61
2022/12/20 07:33:11;;;;;;;0.80;0.80;;;;;;;;;;4560900;27;20029;-60
2022/12/20 07:35:22;;;;;;;0.93;0.80;;;;;;;;;;4579230;27;20436;-60
2022/12/20 07:37:32;;;;;;;0.77;0.77;;;;;;;;;;4580990;27;20042;-60
2022/12/20 07:39:42;;;;;;;0.80;0.80;;;;;;;;;;4581564;27;20030;-60
2022/12/20 07:41:54;;;;;;;1.42;0.80;;;;;;;;;;4578954;27;20303;-59
2022/12/20 07:44:05;;;;;;;1.10;0.80;;;;;;;;;;4580106;27;20032;-60
2022/12/20 07:46:16;;;;;;;0.93;0.70;;;;;;;;;;4579706;27;20466;-60
2022/12/20 07:48:26;;;;;;;0.85;0.75;;;;;;;;;;4579916;27;20125;-60
2022/12/20 07:50:37;;;;;;;1.23;0.90;;;;;;;;;;4580889;27;20095;-59
2022/12/20 07:52:48;;;;;;;0.80;0.80;;;;;;;;;;4567799;27;20109;-60
2022/12/20 07:55:01;;;;;;;0.75;0.75;;;;;;;;;;4576717;27;20594;-60
2022/12/20 07:57:14;;;;;;;0.98;0.73;;;;;;;;;;4578104;27;20661;-60
2022/12/20 07:59:28;;;;;;;1.05;0.80;;;;;;;;;;4568190;27;20059;-60
2022/12/20 08:01:39;;;;;;;0.98;0.60;;;;;;;;;;4574069;27;20570;-59
2022/12/20 08:03:52;;;;;;;1.00;0.90;;;;;;;;;;4598874;27;20288;-59
2022/12/20 08:06:03;;;;;;;0.90;0.70;;;;;;;;;;4598569;27;20023;-60
2022/12/20 08:08:14;;;;;;;0.70;0.70;;;;;;;;;;4596387;27;20146;-59
2022/12/20 08:10:24;;;;;;;0.88;0.80;;;;;;;;;;4596261;27;20032;-60
2022/12/20 08:12:35;;;;;;;1.65;0.95;;;;;;;;;;4597292;27;20039;-55
2022/12/20 08:14:45;;;;;;;0.88;0.80;;;;;;;;;;4578702;27;20050;-59
2022/12/20 08:16:56;;;;;;;0.80;0.80;;;;;;;;;;4599556;27;20051;-59
2022/12/20 08:19:06;;;;;;;0.77;0.73;;;;;;;;;;4597441;27;20353;-58
2022/12/20 08:21:16;;;;;;;0.80;0.73;;;;;;;;;;4597236;27;20032;-58
2022/12/20 08:23:27;;;;;;;0.85;0.85;;;;;;;;;;4590256;27;20032;-59
2022/12/20 08:25:37;;;;;;;0.80;0.77;;;;;;;;;;4579470;27;20028;-59
2022/12/20 08:27:48;;;;;;;0.70;0.70;;;;;;;;;;4599024;27;20056;-59
2022/12/20 08:29:58;;;;;;;1.00;0.80;;;;;;;;;;4598472;27;20027;-60
2022/12/20 08:32:09;;;;;;;0.60;0.60;;;;;;;;;;4599366;27;20586;-59
2022/12/20 08:34:20;;;;;;;0.60;0.60;;;;;;;;;;4597175;27;20032;-60
2022/12/20 08:36:30;;;;;;;0.60;0.60;;;;;;;;;;4598036;27;20658;-60
2022/12/20 08:38:40;;;;;;;1.10;0.90;;;;;;;;;;4591776;27;20493;-60
2022/12/20 08:40:51;;;;;;;0.93;0.70;;;;;;;;;;4596572;27;20394;-60
2022/12/20 08:43:01;;;;;;;1.15;0.80;;;;;;;;;;4598753;27;20028;-61
2022/12/20 08:45:12;;;;;;;0.80;0.80;;;;;;;;;;4579793;27;20476;-60
2022/12/20 08:47:22;;;;;;;0.80;0.80;;;;;;;;;;4578365;27;20032;-59
2022/12/20 08:49:33;;;;;;;0.80;0.80;;;;;;;;;;4597120;27;20922;-59
2022/12/20 08:51:43;;;;;;;0.70;0.70;;;;;;;;;;4598116;27;20102;-60
2022/12/20 08:53:53;;;;;;;0.80;0.70;;;;;;;;;;4598652;27;20032;-59
2022/12/20 08:56:07;;;;;;;0.80;0.80;;;;;;;;;;4599434;27;20043;-60
2022/12/20 08:58:17;;;;;;;1.10;0.80;;;;;;;;;;4598107;27;20035;-59
2022/12/20 09:00:28;;;;;;;0.90;0.90;;;;;;;;;;4589523;27;20069;-60
2022/12/20 09:02:40;;;;;;;0.90;0.73;;;;;;;;;;4578592;27;20040;-60
2022/12/20 09:04:50;;;;;;;1.05;0.75;;;;;;;;;;4598695;27;20245;-60
2022/12/20 09:07:01;;;;;;;0.70;0.70;;;;;;;;;;4580158;27;20032;-60
2022/12/20 09:09:12;;;;;;;0.82;0.63;;;;;;;;;;4577161;27;20040;-60
2022/12/20 09:11:23;;;;;;;1.02;0.70;;;;;;;;;;4605701;22;20035;-60
2022/12/20 09:13:33;;;;;;;0.80;0.80;;;;;;;;;;4561701;27;20094;-60
2022/12/20 09:15:44;;;;;;;0.80;0.70;;;;;;;;;;4560497;27;20093;-60
2022/12/20 09:17:55;;;;;;;0.90;0.90;;;;;;;;;;4560302;28;20578;-60
2022/12/20 09:20:05;;;;;;;1.30;0.80;;;;;;;;;;4560301;27;20031;-59
2022/12/20 09:22:16;;;;;;;0.70;0.70;;;;;;;;;;4573109;22;20054;-60
2022/12/20 09:24:26;;;;;;;0.75;0.75;;;;;;;;;;4568685;27;20548;-60
2022/12/20 09:26:37;;;;;;;1.33;0.80;;;;;;;;;;4558111;27;20048;-60
2022/12/20 09:28:47;;;;;;;0.77;0.77;;;;;;;;;;4567761;27;20048;-60
2022/12/20 09:30:59;;;;;;;1.15;0.80;;;;;;;;;;4542920;27;20037;-60
2022/12/20 09:33:09;;;;;;;0.70;0.70;;;;;;;;;;4566028;27;20112;-60
2022/12/20 09:35:19;;;;;;;0.63;0.63;;;;;;;;;;4568224;27;20060;-60
2022/12/20 09:37:30;;;;;;;1.20;0.80;;;;;;;;;;4566598;27;20504;-61
2022/12/20 09:39:41;;;;;;;0.77;0.70;;;;;;;;;;4539536;27;20072;-60
2022/12/20 09:41:51;;;;;;;0.80;0.80;;;;;;;;;;4569111;27;20560;-60
2022/12/20 09:44:25;;;;;;;0.82;0.80;;;;;;;;;;4557096;27;20110;-61
2022/12/20 09:46:35;;;;;;;0.80;0.80;;;;;;;;;;4554322;27;20044;-60
2022/12/20 09:48:46;;;;;;;1.00;0.90;;;;;;;;;;4565716;27;20040;-60
2022/12/20 09:51:23;;;;;;;1.27;0.90;;;;;;;;;;4565843;27;20586;-60
2022/12/20 09:53:36;;;;;;;0.80;0.80;;;;;;;;;;4525403;27;20049;-60
2022/12/20 09:55:51;;;;;;;0.95;0.80;;;;;;;;;;4559010;28;20087;-60
2022/12/20 09:58:20;;;;;;;0.70;0.70;;;;;;;;;;4564212;27;20037;-60
2022/12/20 10:00:34;;;;;;;0.90;0.90;;;;;;;;;;4564888;27;20044;-59
2022/12/20 10:02:45;;;;;;;0.88;0.77;;;;;;;;;;4565380;27;20123;-60
2022/12/20 10:04:55;;;;;;;0.80;0.80;;;;;;;;;;4542691;27;20163;-61
2022/12/20 10:07:14;;;;;;;0.80;0.80;;;;;;;;;;4568575;27;20033;-60
2022/12/20 10:09:35;;;;;;;0.80;0.80;;;;;;;;;;4566898;27;20131;-60
2022/12/20 10:11:56;;;;;;;0.98;0.80;;;;;;;;;;4564641;27;20032;-60
2022/12/20 10:14:19;;;;;;;1.02;0.82;;;;;;;;;;4566706;27;20625;-60
2022/12/20 10:16:43;;;;;;;1.20;1.00;;;;;;;;;;4566267;27;20055;-60
2022/12/20 10:18:56;;;;;;;1.42;1.00;;;;;;;;;;4555250;27;20526;-60
2022/12/20 10:21:24;;;;;;;1.38;0.90;;;;;;;;;;4567311;27;20032;-60
2022/12/20 10:23:34;;;;;;;;;;;;;;;;;;4567459;27;20427;-60
2022/12/20 10:25:46;;;;;;;0.98;0.90;;;;;;;;;;4565377;27;19916;-60
2022/12/20 10:27:57;;;;;;;1.10;0.80;;;;;;;;;;4564818;27;20746;-60
2022/12/20 10:30:14;;;;;;;0.80;0.80;;;;;;;;;;4566089;27;20106;-60
2022/12/20 10:32:26;;;;;;;0.80;0.80;;;;;;;;;;4546954;27;20855;-60
2022/12/20 10:34:36;;;;;;;1.25;0.88;;;;;;;;;;4566727;27;20722;-60
2022/12/20 10:36:48;;;;;;;0.90;0.73;;;;;;;;;;4564948;27;20037;-60
2022/12/20 10:39:02;;;;;;;1.15;0.90;;;;;;;;;;4564971;27;20046;-60
2022/12/20 10:41:17;;;;;;;0.90;0.70;;;;;;;;;;4551526;27;20040;-60
2022/12/20 10:43:35;;;;;;;0.82;0.82;;;;;;;;;;4564299;27;20113;-60
2022/12/20 10:46:00;;;;;;;0.98;0.90;;;;;;;;;;4567125;27;20040;-61
2022/12/20 10:48:29;;;;;;;0.90;0.90;;;;;;;;;;4546263;27;20571;-60
2022/12/20 10:50:39;;;;;;;1.70;0.80;;;;;;;;;;4563978;27;20035;-65
2022/12/20 10:53:07;;;;;;;1.20;0.90;;;;;;;;;;4565897;27;20070;-60
2022/12/20 10:55:37;;;;;;;1.10;1.00;;;;;;;;;;4569950;27;20054;-60
2022/12/20 10:57:48;;;;;;;1.10;1.00;;;;;;;;;;4564462;27;20066;-60
2022/12/20 10:59:59;;;;;;;0.80;0.80;;;;;;;;;;4565988;27;20856;-64
2022/12/20 11:02:29;;;;;;;1.50;1.05;;;;;;;;;;4565702;27;20063;-60
2022/12/20 11:04:39;;;;;;;1.38;0.90;;;;;;;;;;4569923;27;20518;-60
2022/12/20 11:06:49;;;;;;;1.00;0.90;;;;;;;;;;4571534;27;20033;-60
2022/12/20 11:09:19;;;;;;;1.15;0.88;;;;;;;;;;4558479;27;20048;-60
2022/12/20 11:11:29;;;;;;;1.05;0.85;;;;;;;;;;4545826;27;20088;-60
2022/12/20 11:13:40;;;;;;;0.82;0.82;;;;;;;;;;4573369;27;20043;-61
2022/12/20 11:15:54;;;;;;;1.42;1.00;;;;;;;;;;4569102;27;20051;-62
2022/12/20 11:18:06;;;;;;;1.35;0.93;;;;;;;;;;4568349;27;20027;-63
2022/12/20 11:20:22;;;;;;;0.80;0.80;;;;;;;;;;4571578;27;21409;-60
2022/12/20 11:22:42;;;;;;;1.42;1.00;;;;;;;;;;4551499;27;20037;-60
2022/12/20 11:25:25;;;;;;;1.20;1.10;;;;;;;;;;4546396;27;20134;-60
2022/12/20 11:27:35;;;;;;;1.13;0.90;;;;;;;;;;4531932;27;20044;-61
2022/12/20 11:30:06;;;;;;;1.55;1.00;;;;;;;;;;4568294;27;20064;-62
2022/12/20 11:32:20;;;;;;;1.20;1.10;;;;;;;;;;4568719;27;20583;-60
2022/12/20 11:34:57;;;;;;;1.15;0.95;;;;;;;;;;4570889;27;20032;-60
2022/12/20 11:37:14;;;;;;;1.15;1.02;;;;;;;;;;4572750;27;20032;-60
2022/12/20 11:39:46;;;;;;;1.10;1.00;;;;;;;;;;4566707;27;20037;-60
2022/12/20 11:42:05;;;;;;;1.20;1.10;;;;;;;;;;4567275;27;20045;-59
2022/12/20 11:44:16;;;;;;;1.88;1.00;;;;;;;;;;4544810;27;20628;-60
2022/12/20 11:46:32;;;;;;;0.98;0.90;;;;;;;;;;4567624;27;20115;-60
2022/12/20 11:48:42;;;;;;;1.13;0.80;;;;;;;;;;4569110;27;20054;-60
2022/12/20 11:51:18;;;;;;;1.10;1.00;;;;;;;;;;4567183;27;20503;-60
2022/12/20 11:53:35;;;;;;;1.05;0.95;;;;;;;;;;4569054;27;20039;-60
2022/12/20 11:55:48;;;;;;;0.77;0.75;;;;;;;;;;4568765;27;20126;-60
2022/12/20 11:58:01;;;;;;;1.23;0.90;;;;;;;;;;4569063;27;20033;-60
2022/12/20 12:00:12;;;;;;;0.80;0.80;;;;;;;;;;4535284;27;20036;-60
2022/12/20 12:02:26;;;;;;;1.05;0.90;;;;;;;;;;4568685;27;20032;-60
2022/12/20 12:04:40;;;;;;;1.27;0.85;;;;;;;;;;4567241;27;20123;-59
2022/12/20 12:07:14;;;;;;;0.82;0.80;;;;;;;;;;4569445;27;20028;-60
2022/12/20 12:09:29;;;;;;;1.08;0.90;;;;;;;;;;4570564;27;20032;-60
2022/12/20 12:11:47;;;;;;;0.98;0.88;;;;;;;;;;4573244;27;20811;-60
2022/12/20 12:14:00;;;;;;;0.80;0.80;;;;;;;;;;4568301;27;20058;-60
2022/12/20 12:16:19;;;;;;;1.13;0.90;;;;;;;;;;4565049;27;20040;-60
2022/12/20 12:18:30;;;;;;;1.05;0.80;;;;;;;;;;4568216;27;21174;-60
2022/12/20 12:20:40;;;;;;;1.00;0.90;;;;;;;;;;4568443;27;20574;-60
2022/12/20 12:22:55;;;;;;;1.00;0.90;;;;;;;;;;4566858;27;20045;-60
2022/12/20 12:25:10;;;;;;;1.00;0.80;;;;;;;;;;4567338;27;20040;-60
2022/12/20 12:27:21;;;;;;;1.15;1.02;;;;;;;;;;4566804;27;20047;-60
2022/12/20 12:29:32;;;;;;;1.08;0.98;;;;;;;;;;4567687;27;20867;-60
2022/12/20 12:31:52;;;;;;;0.98;0.80;;;;;;;;;;4567366;27;20033;-60
2022/12/20 12:34:09;;;;;;;1.00;0.90;;;;;;;;;;4564990;27;20196;-61
2022/12/20 12:36:29;;;;;;;1.10;0.90;;;;;;;;;;4567652;27;20139;-60
2022/12/20 12:38:40;;;;;;;1.13;0.90;;;;;;;;;;4568199;27;20024;-60
2022/12/20 12:40:59;;;;;;;0.90;0.90;;;;;;;;;;4567835;27;20045;-60
2022/12/20 12:43:12;;;;;;;0.70;0.70;;;;;;;;;;4530915;27;20037;-60
2022/12/20 12:45:26;;;;;;;0.73;0.73;;;;;;;;;;4566590;27;20040;-59
2022/12/20 12:47:42;;;;;;;1.27;0.85;;;;;;;;;;4564672;27;20056;-60
2022/12/20 12:49:53;;;;;;;0.70;0.70;;;;;;;;;;4553195;27;20134;-60
2022/12/20 12:52:04;;;;;;;0.90;0.80;;;;;;;;;;4541940;27;20043;-60
2022/12/20 12:54:20;;;;;;;1.20;0.80;;;;;;;;;;4568716;27;20043;-60
2022/12/20 12:56:36;;;;;;;1.13;0.80;;;;;;;;;;4566122;27;20095;-60
2022/12/20 12:59:13;;;;;;;0.88;0.70;;;;;;;;;;4569132;27;20044;-60
2022/12/20 13:01:42;;;;;;;0.80;0.80;;;;;;;;;;4530891;27;20540;-60
2022/12/20 13:03:53;;;;;;;0.70;0.70;;;;;;;;;;4568627;27;20035;-60
2022/12/20 13:06:21;;;;;;;0.77;0.73;;;;;;;;;;4567669;27;20039;-60
2022/12/20 13:08:46;;;;;;;1.20;0.80;;;;;;;;;;4567456;27;20040;-61
2022/12/20 13:10:58;;;;;;;0.98;0.80;;;;;;;;;;4567274;27;20075;-60
2022/12/20 13:13:13;;;;;;;1.15;0.80;;;;;;;;;;4569739;27;20147;-60
2022/12/20 13:15:23;;;;;;;0.80;0.80;;;;;;;;;;4568742;27;20043;-60
2022/12/20 13:17:49;;;;;;;1.08;0.85;;;;;;;;;;4567794;27;20030;-60
2022/12/20 13:20:00;;;;;;;1.00;0.90;;;;;;;;;;4549404;27;20045;-60
2022/12/20 13:22:10;;;;;;;1.00;0.80;;;;;;;;;;4566429;27;20029;-60
2022/12/20 13:24:49;;;;;;;0.80;0.80;;;;;;;;;;4569462;27;20131;-60
2022/12/20 13:27:00;;;;;;;1.58;1.30;;;;;;;;;;4566780;27;20031;-59